Latest Coastal Weather Observations for Yamba

IDN60701

Issued at 11:01 pm EDT Friday 24 March 2017 (issued every 10 minutes, with the page automatically refreshed every 10 minutes)

About coastal observations | Map of coastal stations | Coastal observations for NSW | Marine services | Other Formats
Station Details ID: 058012 Name: YAMBA PILOT STATION Lat: -29.43 Lon: 153.36 Height: 27.4 m
Data from the previous 72 hours. | See also: Recent months at Yamba
Date/Time
EDT
Temp
°C
Wind Pressure Rain since
9am
mm
Weather Cloud Vis
km
Sea
Height
m
Swell
Dir  Spd
kts
Gust
kts
hPa Trend Height
m
Period
s
Dir
24/11:00pm 21.1 SSE 7 11 1018.1 - 0.4 - - - - - - -
24/10:30pm 21.3 SW 5 8 1017.9 - 0.4 - - - - - - -
24/10:00pm 21.4 SSW 9 15 1017.7 - 0.4 - - - - - - -
24/09:30pm 21.4 SSW 9 15 1017.6 - 0.4 - - - - - - -
24/09:00pm 21.3 SSW 7 12 1017.4 - 0.4 Recent precip. - - - - - -
24/08:30pm 21.0 SSW 8 11 1017.3 - 0.4 - - - - - - -
24/08:00pm 21.5 S 10 15 1017.0 - 0.2 - - - - - - -
24/07:30pm 22.6 SSE 14 21 1016.7 - 0.2 - - - - - - -
24/07:00pm 23.0 SSE 13 18 1016.4 - 0.2 - - - - - - -
24/06:30pm 23.1 S 10 16 1016.2 - 0.2 - - - - - - -
24/06:00pm 23.0 SSE 11 16 1016.0 - 0.2 - - - - - - -
24/05:30pm 23.4 SSE 13 20 1015.8 - 0.2 - - - - - - -
24/05:00pm 23.4 SSE 14 21 1015.8 - 0.2 - - - - - - -
24/04:30pm 23.5 SSE 13 23 1015.7 - 0.2 - - - - - - -
24/04:00pm 23.7 SSE 14 23 1015.7 - 0.2 - - - - - - -
24/03:36pm 24.3 SSE 16 26 1015.6 - 0.2 - - - - - - -
24/03:30pm 24.4 SSE 16 24 1015.7 - 0.2 - - - - - - -
24/03:00pm 24.7 SSE 15 22 1015.6 - 0.2 - - - - - - -
24/02:30pm 24.1 SSE 16 25 1015.8 - 0.2 - - - - - - -
24/02:00pm 24.6 SSE 16 27 1015.9 - 0.2 - - - - - - -
24/01:47pm 25.1 SSE 15 25 1016.0 - 0.2 - - - - - - -
24/01:30pm 25.9 SSE 13 21 1016.1 - 0.2 - - - - - - -
24/01:01pm 25.8 SSE 15 25 1016.4 - 0.2 - - - - - - -
24/01:00pm 25.8 SSE 15 22 1016.4 - 0.2 - - - - - - -
24/12:53pm 26.0 SSE 15 25 1016.5 - 0.2 - - - - - - -
24/12:30pm 25.9 SSE 19 26 1016.5 - 0.2 - - - - - - -
24/12:00pm 26.0 SSE 15 26 1016.8 - 0.0 - - - - - - -
24/11:56am 25.5 SSE 15 26 1016.8 - 0.0 - - - - - - -
24/11:30am 25.6 SSE 13 19 1017.0 - 0.0 - - - - - - -
24/11:00am 26.4 SSE 13 19 1016.9 - 0.0 - - - - - - -
24/10:30am 26.2 SSE 11 18 1016.8 - 0.0 - - - - - - -
24/10:00am 24.2 S 12 19 1016.9 - 0.0 - - - - - - -
24/09:30am 24.9 S 10 16 1016.6 - 0.0 - - - - - - -
24/09:00am 24.8 S 8 13 1016.1 - 0.2 - - - - - - -
24/08:30am 23.7 SSW 8 12 1015.8 - 0.2 - - - - - - -
24/08:00am 22.6 SSW 6 9 1015.5 - 0.2 - - - - - - -
24/07:30am 21.9 SW 3 5 1015.3 - 0.2 - - - - - - -
24/07:00am 21.7 SW 4 5 1015.0 - 0.2 - - - - - - -
24/06:30am 21.7 WSW 4 5 1014.8 - 0.2 - - - - - - -
24/06:00am 22.0 WSW 4 5 1014.5 - 0.2 - - - - - - -
24/05:30am 22.2 SW 4 5 1014.4 - 0.2 - - - - - - -
24/05:00am 22.2 SW 3 5 1014.4 - 0.2 - - - - - - -
24/04:30am 22.3 SW 3 4 1014.2 - 0.2 - - - - - - -
24/04:00am 22.3 SW 3 4 1014.2 - 0.2 - - - - - - -
24/03:30am 22.4 SW 3 5 1014.4 - 0.2 - - - - - - -
24/03:00am 22.5 SSW 5 7 1014.8 - 0.2 - - - - - - -
24/02:30am 22.6 SW 5 7 1014.9 - 0.2 - - - - - - -
24/02:00am 22.7 SW 4 7 1015.1 - 0.2 - - - - - - -
24/01:30am 23.0 SW 5 7 1015.4 - 0.2 - - - - - - -
24/01:00am 23.1 SW 3 5 1015.8 - 0.2 - - - - - - -
24/12:30am 23.1 W 4 6 1016.1 - 0.2 - - - - - - -
24/12:00am 23.3 W 4 6 1016.1 - 0.2 Recent precip. - - - - - -
 
Date/Time
EDT
Temp
°C
Wind Pressure Rain since
9am
mm
Weather Cloud Vis
km
Sea
Height
m
Swell
Dir  Spd
kts
Gust
kts
hPa Trend Height
m
Period
s
Dir
23/11:30pm 23.4 WSW 4 6 1016.2 - 0.0 - - - - - - -
23/11:00pm 23.4 WSW 4 6 1016.4 - 0.0 - - - - - - -
23/10:30pm 23.5 WSW 4 6 1016.6 - 0.0 - - - - - - -
23/10:00pm 23.7 WSW 5 7 1016.7 - 0.0 - - - - - - -
23/09:30pm 23.8 WNW 5 6 1016.5 - 0.0 - - - - - - -
23/09:00pm 23.8 NNW 4 5 1016.2 - 0.0 - - - - - - -
23/08:30pm 24.1 N 3 5 1016.0 - 0.0 - - - - - - -
23/08:00pm 24.3 NNE 3 6 1015.8 - 0.0 - - - - - - -
23/07:30pm 24.3 NE 5 10 1015.4 - 0.0 - - - - - - -
23/07:00pm 24.5 E 6 10 1015.4 - 0.0 - - - - - - -
23/06:30pm 24.6 E 8 11 1015.4 - 0.0 - - - - - - -
23/06:00pm 24.7 E 8 12 1015.1 - 0.0 - - - - - - -
23/05:30pm 25.1 ESE 10 16 1015.0 - 0.0 - - - - - - -
23/05:00pm 25.7 SE 15 19 1015.1 - 0.0 - - - - - - -
23/04:30pm 26.3 SE 15 21 1015.0 - 0.0 - - - - - - -
23/04:00pm 26.4 SE 17 23 1014.6 - 0.0 - - - - - - -
23/03:30pm 26.3 SE 14 19 1014.7 - 0.0 - - - - - - -
23/03:00pm 26.1 SE 16 22 1015.0 - 0.0 - - - - - - -
23/02:30pm 25.4 SSE 16 21 1015.0 - 0.0 - - - - - - -
23/02:00pm 26.4 SSE 16 23 1015.4 - 0.0 - - - - - - -
23/01:30pm 26.5 SSE 15 22 1015.8 - 0.0 - - - - - - -
23/01:00pm 26.4 SSE 14 19 1015.8 - 0.0 - - - - - - -
23/12:30pm 25.8 SSE 14 20 1016.1 - 0.0 - - - - - - -
23/12:00pm 26.9 SSE 14 23 1016.3 - 0.0 - - - - - - -
23/11:30am 26.5 SSE 13 17 1016.4 - 0.0 - - - - - - -
23/11:00am 26.3 SE 11 14 1016.6 - 0.0 - - - - - - -
23/10:30am 26.6 SSE 7 9 1016.5 - 0.0 - - - - - - -
23/10:00am 26.0 S 5 7 1016.3 - 0.0 - - - - - - -
23/09:30am 25.5 W 4 7 1016.0 - 0.0 - - - - - - -
23/09:00am 24.2 WNW 4 6 1015.8 - 0.0 - - - - - - -
23/08:30am 23.7 NW 4 5 1015.4 - 0.0 - - - - - - -
23/08:00am 23.3 WNW 4 6 1014.9 - 0.0 - - - - - - -
23/07:30am 23.0 NW 4 5 1014.5 - 0.0 - - - - - - -
23/07:00am 22.8 NW 5 6 1014.5 - 0.0 - - - - - - -
23/06:30am 23.0 NNW 4 5 1014.1 - 0.0 - - - - - - -
23/06:00am 23.1 NNW 4 5 1013.9 - 0.0 - - - - - - -
23/05:30am 23.1 NNW 4 6 1013.5 - 0.0 - - - - - - -
23/05:00am 23.2 NNW 5 7 1013.4 - 0.0 - - - - - - -
23/04:30am 23.3 N 4 6 1013.4 - 0.0 - - - - - - -
23/04:00am 23.5 NNW 5 8 1013.4 - 0.0 - - - - - - -
23/03:30am 23.3 NNW 4 7 1013.5 - 0.0 - - - - - - -
23/03:00am 23.5 N 4 6 1013.6 - 0.0 - - - - - - -
23/02:30am 23.6 NNW 5 6 1014.1 - 0.0 - - - - - - -
23/02:00am 23.7 NW 4 5 1014.4 - 0.0 - - - - - - -
23/01:30am 23.6 NNW 4 6 1014.6 - 0.0 - - - - - - -
23/01:00am 23.8 N 4 5 1014.7 - 0.0 - - - - - - -
23/12:30am 24.0 N 4 5 1014.9 - 0.0 - - - - - - -
23/12:00am 24.1 N 3 5 1015.0 - 0.0 - - - - - - -
 
Date/Time
EDT
Temp
°C
Wind Pressure Rain since
9am
mm
Weather Cloud Vis
km
Sea
Height
m
Swell
Dir  Spd
kts
Gust
kts
hPa Trend Height
m
Period
s
Dir
22/11:30pm 24.2 N 3 4 1015.0 - 0.0 - - - - - - -
22/11:00pm 24.2 N 4 5 1015.1 - 0.0 - - - - - - -
22/10:30pm 24.3 N 4 6 1015.0 - 0.0 - - - - - - -
22/10:00pm 24.4 NNW 4 6 1014.9 - 0.0 - - - - - - -
22/09:30pm 24.5 N 4 6 1015.0 - 0.0 - - - - - - -
22/09:00pm 24.7 N 5 9 1014.6 - 0.0 - - - - - - -
22/08:30pm 24.7 N 4 6 1014.4 - 0.0 - - - - - - -
22/08:00pm 24.7 N 5 7 1014.0 - 0.0 - - - - - - -
22/07:30pm 24.8 N 5 8 1013.7 - 0.0 - - - - - - -
22/07:00pm 25.0 NNW 5 8 1013.5 - 0.0 - - - - - - -
22/06:30pm 25.4 N 4 8 1013.2 - 0.0 - - - - - - -
22/06:00pm 25.8 N 5 10 1013.1 - 0.0 - - - - - - -
22/05:30pm 26.3 N 5 11 1013.2 - 0.0 - - - - - - -
22/05:00pm 26.8 N 5 9 1013.1 - 0.0 - - - - - - -
22/04:30pm 28.0 N 6 9 1013.1 - 0.0 - - - - - - -
22/04:00pm 28.4 N 6 12 1013.3 - 0.0 - - - - - - -
22/03:30pm 28.3 N 6 11 1013.4 - 0.0 - - - - - - -
22/03:00pm 27.7 NNE 5 8 1013.6 - 0.0 - - - - - - -
22/02:30pm 28.4 NNE 4 7 1013.9 - 0.0 - - - - - - -
22/02:00pm 27.7 NE 5 7 1014.3 - 0.0 - - - - - - -
22/01:30pm 28.1 NNE 4 6 1014.6 - 0.0 - - - - - - -
22/01:00pm 28.1 NW 5 6 1015.0 - 0.0 - - - - - - -
22/12:30pm 28.2 NW 5 8 1015.3 - 0.0 - - - - - - -
22/12:00pm 27.1 NNW 5 7 1015.6 - 0.0 - - - - - - -
22/11:30am 26.0 NNW 6 9 1015.8 - 0.0 - - - - - - -
22/11:00am 27.2 NW 6 8 1015.9 - 0.0 - - - - - - -
22/10:30am 26.4 NW 5 7 1016.0 - 0.0 - - - - - - -
22/10:00am 25.8 NW 5 7 1016.1 - 0.0 - - - - - - -
22/09:30am 25.5 NW 6 9 1015.9 - 0.0 - - - - - - -
22/09:00am 23.9 NW 7 11 1016.0 - 0.0 - - - - - - -
22/08:30am 23.0 NNW 9 15 1015.9 - 0.0 - - - - - - -
22/08:00am 22.7 NW 5 6 1015.6 - 0.0 - - - - - - -
22/07:30am 22.4 NW 5 6 1015.3 - 0.0 - - - - - - -
22/07:00am 22.2 WNW 5 7 1015.1 - 0.0 - - - - - - -
22/06:30am 22.3 NW 4 6 1015.0 - 0.0 - - - - - - -
22/06:00am 22.4 NW 4 5 1014.9 - 0.0 - - - - - - -
22/05:30am 22.5 NW 4 6 1014.8 - 0.0 - - - - - - -
22/05:00am 22.5 NW 5 7 1014.6 - 0.0 - - - - - - -
22/04:30am 22.5 NNW 4 7 1014.5 - 0.0 - - - - - - -
22/04:00am 22.5 NNW 3 4 1014.7 - 0.0 - - - - - - -
22/03:30am 22.5 NNW 5 6 1014.8 - 0.0 - - - - - - -
22/03:00am 23.0 NNW 6 8 1014.9 - 0.0 - - - - - - -
22/02:30am 23.1 NNW 5 7 1015.1 - 0.0 - - - - - - -
22/02:00am 23.2 N 5 7 1015.4 - 0.0 - - - - - - -
22/01:30am 23.5 NNW 5 8 1015.6 - 0.0 - - - - - - -
22/01:00am 23.7 NNW 5 8 1015.9 - 0.0 - - - - - - -
22/12:30am 23.8 NNW 5 7 1016.0 - 0.0 - - - - - - -
22/12:00am 23.9 NNW 4 6 1016.1 - 0.0 - - - - - - -
 
Date/Time
EDT
Temp
°C
Wind Pressure Rain since
9am
mm
Weather Cloud Vis
km
Sea
Height
m
Swell
Dir  Spd
kts
Gust
kts
hPa Trend Height
m
Period
s
Dir
21/11:30pm 24.2 N 5 8 1016.2 - 0.0 - - - - - - -

Other Formats:

Comma delimited format used in spreadsheet applications
http://www.bom.gov.au/fwo/IDN60701/IDN60701.94589.axf

JavaScript Object Notation format (JSON) in row-major order
http://www.bom.gov.au/fwo/IDN60701/IDN60701.94589.json